createdAt,value
2022-09-07T00:00:11.267Z,70.9
2022-09-07T00:05:46.275Z,71
2022-09-07T00:11:20.987Z,71.1
2022-09-07T00:16:55.805Z,71.1
2022-09-07T00:22:31.618Z,71.1
2022-09-07T00:28:07.868Z,71.2
2022-09-07T00:33:42.823Z,71.3
2022-09-07T00:39:17.722Z,71.2
2022-09-07T00:44:52.515Z,71.2
2022-09-07T00:50:27.302Z,71.3
2022-09-07T00:56:02.132Z,71.3
2022-09-07T01:01:37.473Z,71.2
2022-09-07T01:07:14.417Z,71.2
2022-09-07T01:12:49.122Z,71.4
2022-09-07T01:18:24.128Z,71.4
2022-09-07T01:23:59.394Z,71.4
2022-09-07T01:29:34.699Z,71.4
2022-09-07T01:35:10.661Z,71.5
2022-09-07T01:41:07.153Z,71.4
2022-09-07T01:46:40.456Z,71.5
2022-09-07T01:52:16.609Z,71.6
2022-09-07T01:57:51.538Z,71.7
2022-09-07T02:03:26.329Z,71.8
2022-09-07T02:09:01.147Z,72
2022-09-07T02:14:36.086Z,72.1
2022-09-07T02:20:10.894Z,72.2
2022-09-07T02:25:45.623Z,72.3
2022-09-07T02:31:20.480Z,72.3
2022-09-07T02:36:56.135Z,72.4
2022-09-07T02:42:52.712Z,72.4
2022-09-07T02:48:25.235Z,72.6
2022-09-07T02:54:00.907Z,72.6
2022-09-07T02:59:35.570Z,72.8
2022-09-07T03:05:10.251Z,73.1
2022-09-07T03:10:45.083Z,73.2
2022-09-07T03:16:20.280Z,73.4
2022-09-07T03:21:55.627Z,73.4
2022-09-07T03:27:31.561Z,73.6
2022-09-07T03:33:06.573Z,73.7
2022-09-07T03:38:41.554Z,73.9
2022-09-07T03:44:16.557Z,74
2022-09-07T03:49:53.154Z,74.2
2022-09-07T03:55:28.022Z,74.4
2022-09-07T04:01:04.373Z,74.5
2022-09-07T04:06:40.062Z,74.6
2022-09-07T04:12:14.894Z,74.8
2022-09-07T04:17:49.846Z,74.9
2022-09-07T04:23:24.727Z,75
2022-09-07T04:28:59.586Z,75.1
2022-09-07T04:34:34.505Z,75.3
2022-09-07T04:40:10.838Z,75.4
2022-09-07T04:45:46.865Z,75.5
2022-09-07T04:51:22.302Z,75.7
2022-09-07T04:56:56.965Z,75.8
2022-09-07T05:02:33.264Z,75.9
2022-09-07T05:08:09.170Z,75.9
2022-09-07T05:13:44.011Z,76
2022-09-07T05:19:18.858Z,76
2022-09-07T05:24:53.751Z,76.1
2022-09-07T05:37:03.946Z,76.3
2022-09-07T05:42:38.799Z,76.3
2022-09-07T05:48:13.682Z,76.4
2022-09-07T05:53:48.689Z,76.4
2022-09-07T05:59:23.572Z,76.5
2022-09-07T06:04:58.381Z,76.6
2022-09-07T06:10:48.890Z,76.7
2022-09-07T06:16:24.134Z,76.7
2022-09-07T06:21:59.365Z,76.7
2022-09-07T06:27:34.346Z,76.7
2022-09-07T06:33:09.407Z,76.7
2022-09-07T06:38:44.317Z,76.8
2022-09-07T06:44:19.294Z,76.8
2022-09-07T06:49:53.981Z,76.8
2022-09-07T06:55:28.832Z,77.3
2022-09-07T07:01:04.440Z,78.9
2022-09-07T07:06:39.779Z,80.4
2022-09-07T07:18:21.369Z,78.9
2022-09-07T07:23:56.840Z,77.2
2022-09-07T07:29:31.687Z,75.5
2022-09-07T07:35:06.429Z,74.8
2022-09-07T07:40:41.910Z,72.9
2022-09-07T07:46:20.174Z,73.7
2022-09-07T07:59:18.468Z,72.3
2022-09-07T08:04:53.620Z,70.3
2022-09-07T08:10:28.710Z,68.2
2022-09-07T08:16:04.898Z,68.8
2022-09-07T08:21:40.946Z,66.4
2022-09-07T08:27:16.077Z,66.8
2022-09-07T08:32:51.250Z,68.2
2022-09-07T08:38:26.071Z,66.9
2022-09-07T08:44:01.095Z,67.7
2022-09-07T08:49:37.616Z,66.8
2022-09-07T08:55:12.586Z,66.2
2022-09-07T09:00:48.280Z,66
2022-09-07T09:06:25.551Z,65.4
2022-09-07T09:12:01.667Z,65.3
2022-09-07T09:17:36.604Z,62.5
2022-09-07T09:23:11.473Z,62.8
2022-09-07T09:28:46.565Z,63.4
2022-09-07T09:34:28.671Z,61.5
2022-09-07T09:40:11.453Z,60.1
2022-09-07T09:46:17.916Z,63.8
2022-09-07T09:52:29.488Z,65.6
2022-09-07T10:05:49.444Z,65.4
2022-09-07T10:12:06.445Z,63.1
2022-09-07T10:17:43.979Z,63.6
2022-09-07T10:23:19.220Z,62.5
2022-09-07T10:29:10.820Z,60.7
2022-09-07T10:34:49.986Z,60.6
2022-09-07T10:40:25.426Z,54.6
2022-09-07T10:46:00.969Z,50.3
2022-09-07T10:51:37.199Z,48.5
2022-09-07T10:57:12.112Z,49
2022-09-07T11:03:25.529Z,48.2
2022-09-07T11:09:20.714Z,47.3
2022-09-07T11:14:56.747Z,43.6
2022-09-07T11:20:31.819Z,41
2022-09-07T11:26:06.833Z,43.8
2022-09-07T11:31:42.093Z,43
2022-09-07T11:37:17.082Z,41.7
2022-09-07T11:42:52.298Z,45.4
2022-09-07T11:48:31.708Z,45.7
2022-09-07T11:54:11.895Z,43.2
2022-09-07T11:59:57.768Z,45.6
2022-09-07T12:05:41.879Z,44
2022-09-07T12:11:26.674Z,42.8
2022-09-07T12:17:16.575Z,42.9
2022-09-07T12:22:51.531Z,42.2
2022-09-07T12:28:26.441Z,40.6
2022-09-07T12:34:01.739Z,40.2
2022-09-07T12:39:36.840Z,46.1
2022-09-07T12:45:12.529Z,42.8
2022-09-07T12:50:48.236Z,39.1
2022-09-07T12:56:23.202Z,39.5
2022-09-07T13:01:58.788Z,41.3
2022-09-07T13:07:36.581Z,37.1
2022-09-07T13:13:11.770Z,39.8
2022-09-07T13:18:47.845Z,41.7
2022-09-07T13:24:53.110Z,41.4
2022-09-07T13:30:28.174Z,41.1
2022-09-07T13:36:05.012Z,43
2022-09-07T13:41:40.112Z,44.1
2022-09-07T13:47:14.905Z,42.9
2022-09-07T13:52:49.872Z,43.5
2022-09-07T13:58:24.985Z,43.3
2022-09-07T14:04:00.078Z,43.5
2022-09-07T14:09:34.981Z,44.5
2022-09-07T14:15:09.756Z,43.1
2022-09-07T14:20:44.621Z,43.6
2022-09-07T14:26:20.519Z,42.5
2022-09-07T14:31:55.870Z,43.8
2022-09-07T14:37:30.637Z,45.2
2022-09-07T14:43:05.692Z,44
2022-09-07T14:48:42.777Z,43.5
2022-09-07T14:54:20.241Z,46.4
2022-09-07T14:59:55.480Z,46.3
2022-09-07T15:05:30.455Z,46.1
2022-09-07T15:11:35.576Z,47.8
2022-09-07T15:17:42.904Z,47.5
2022-09-07T15:23:21.589Z,47.1
2022-09-07T15:29:12.359Z,47
2022-09-07T15:34:47.366Z,46.7
2022-09-07T15:40:23.663Z,46.9
2022-09-07T15:46:00.030Z,47.5
2022-09-07T15:52:06.901Z,47.9
2022-09-07T15:58:11.351Z,48.5
2022-09-07T16:03:49.505Z,50.2
2022-09-07T16:09:25.936Z,50.6
2022-09-07T16:15:02.420Z,51.9
2022-09-07T16:20:37.521Z,53.3
2022-09-07T16:26:18.847Z,54
2022-09-07T16:32:47.645Z,54
2022-09-07T16:38:55.677Z,55.3
2022-09-07T16:44:33.693Z,54.5
2022-09-07T16:50:08.554Z,58.6
2022-09-07T16:55:44.285Z,58.7
2022-09-07T17:01:19.717Z,59.1
2022-09-07T17:06:57.431Z,58.9
2022-09-07T17:12:32.334Z,58.9
2022-09-07T17:18:07.150Z,58.3
2022-09-07T17:23:55.473Z,57.8
2022-09-07T17:29:31.436Z,58.3
2022-09-07T17:35:06.437Z,60.9
2022-09-07T17:40:43.116Z,63.7
2022-09-07T17:46:19.663Z,63.7
2022-09-07T17:51:55.727Z,64.8
2022-09-07T17:57:39.720Z,65.2
2022-09-07T18:03:14.832Z,65.5
2022-09-07T18:08:49.555Z,67
2022-09-07T18:14:25.403Z,66.8
2022-09-07T18:20:00.287Z,66.7
2022-09-07T18:25:36.127Z,66.7
2022-09-07T18:31:11.086Z,68.5
2022-09-07T18:36:46.950Z,67.7
2022-09-07T18:42:22.607Z,67.3
2022-09-07T18:47:57.338Z,67
2022-09-07T18:53:32.953Z,68
2022-09-07T18:59:08.827Z,69.6
2022-09-07T19:11:28.033Z,72
2022-09-07T19:17:03.004Z,70.5
2022-09-07T19:22:38.869Z,70.1
2022-09-07T19:28:14.237Z,70.8
2022-09-07T19:33:49.303Z,71.3
2022-09-07T19:39:24.445Z,71.7
2022-09-07T19:44:59.303Z,71.6
2022-09-07T19:50:34.490Z,71.9
2022-09-07T19:56:09.222Z,72.3
2022-09-07T20:01:45.003Z,72.5
2022-09-07T20:07:19.909Z,72.4
2022-09-07T20:12:54.835Z,72.6
2022-09-07T20:18:30.635Z,72.8
2022-09-07T20:24:05.764Z,73.4
2022-09-07T20:29:42.074Z,73.6
2022-09-07T20:35:17.025Z,74
2022-09-07T20:40:51.876Z,74.7
2022-09-07T20:46:27.761Z,74.3
2022-09-07T20:52:03.733Z,74.1
2022-09-07T20:57:38.570Z,74.8
